createdAt,value
2018-01-31T01:53:38.249Z,609.70
2018-01-31T01:56:05.730Z,602.93
2018-01-31T01:58:33.176Z,604.33
2018-01-31T02:01:00.643Z,602.97
2018-01-31T02:03:28.102Z,608.37
2018-01-31T02:05:55.554Z,603.77
2018-01-31T02:08:23.023Z,611.23
2018-01-31T02:10:50.466Z,608.67
2018-01-31T02:13:17.953Z,607.80
2018-01-31T02:15:45.415Z,609.17
2018-01-31T02:18:13.084Z,609.47
2018-01-31T02:20:40.553Z,614.67
2018-01-31T02:23:08.057Z,598.85
2018-01-31T02:25:35.502Z,622.00
2018-01-31T02:28:02.978Z,595.28
2018-01-31T02:30:30.422Z,602.65
2018-01-31T02:32:57.878Z,595.95
2018-01-31T02:35:25.321Z,601.58
2018-01-31T02:37:52.815Z,597.05
2018-01-31T02:40:20.266Z,596.37
2018-01-31T02:42:47.712Z,592.70
2018-01-31T02:45:15.166Z,600.05
2018-01-31T02:47:42.658Z,601.47
2018-01-31T02:50:10.110Z,621.17
2018-01-31T02:52:37.862Z,622.90
2018-01-31T02:55:05.306Z,625.85
2018-01-31T02:57:32.760Z,630.20
2018-01-31T03:00:00.214Z,630.40
2018-01-31T03:02:28.441Z,621.00
2018-01-31T03:04:55.888Z,623.20
2018-01-31T03:07:23.334Z,608.40
2018-01-31T03:09:50.813Z,626.15
2018-01-31T03:12:18.275Z,605.87
2018-01-31T03:14:45.718Z,643.58
2018-01-31T03:17:13.167Z,638.67
2018-01-31T03:19:40.638Z,603.83
2018-01-31T03:22:08.086Z,638.17
2018-01-31T03:24:35.714Z,638.85
2018-01-31T03:27:03.185Z,632.45
2018-01-31T03:29:30.649Z,642.50
2018-01-31T03:31:58.402Z,631.37
2018-01-31T03:34:25.846Z,634.22
2018-01-31T03:36:53.297Z,612.60
2018-01-31T03:39:20.754Z,609.22
2018-01-31T03:41:48.209Z,635.75
2018-01-31T03:44:15.659Z,635.83
2018-01-31T03:46:43.109Z,626.35
2018-01-31T03:49:10.554Z,617.70
2018-01-31T03:51:38.051Z,628.47
2018-01-31T03:54:05.502Z,624.30
2018-01-31T03:56:32.953Z,630.72
2018-01-31T03:59:00.426Z,628.00
2018-01-31T04:01:28.650Z,605.47
2018-01-31T04:03:56.101Z,633.87
2018-01-31T04:06:23.561Z,632.60
2018-01-31T04:08:51.169Z,622.28
2018-01-31T04:11:18.660Z,636.97
2018-01-31T04:13:46.114Z,635.47
2018-01-31T04:16:13.567Z,636.50
2018-01-31T04:18:41.016Z,635.40
2018-01-31T04:21:08.469Z,639.10
2018-01-31T04:23:35.910Z,636.53
2018-01-31T04:26:03.365Z,633.43
2018-01-31T04:28:30.810Z,632.53
2018-01-31T04:30:59.045Z,644.87
2018-01-31T04:33:26.503Z,640.47
2018-01-31T04:35:54.131Z,634.23
2018-01-31T04:38:21.585Z,644.05
2018-01-31T04:40:49.053Z,638.63
2018-01-31T04:43:16.507Z,639.97
2018-01-31T04:45:43.977Z,642.10
2018-01-31T04:48:11.473Z,646.45
2018-01-31T04:50:38.949Z,647.45
2018-01-31T04:53:06.410Z,659.07
2018-01-31T04:55:33.937Z,664.57
2018-01-31T04:58:01.901Z,672.63
2018-01-31T05:00:29.665Z,674.10
2018-01-31T05:02:57.810Z,675.47
2018-01-31T05:05:26.422Z,670.87
2018-01-31T05:07:54.081Z,678.27
2018-01-31T05:10:21.766Z,674.37
2018-01-31T05:12:49.999Z,680.23
2018-01-31T05:15:17.451Z,680.07
2018-01-31T05:17:45.263Z,677.43
2018-01-31T05:20:12.714Z,677.20
2018-01-31T05:22:40.771Z,684.47
2018-01-31T05:25:08.213Z,678.50
2018-01-31T05:27:35.995Z,676.17
2018-01-31T05:30:03.701Z,671.50
2018-01-31T05:32:31.398Z,683.90
2018-01-31T05:34:58.982Z,673.73
2018-01-31T05:37:26.615Z,670.67
2018-01-31T05:39:54.501Z,672.37
2018-01-31T05:42:21.961Z,682.33
2018-01-31T05:44:49.621Z,678.47
2018-01-31T05:47:17.186Z,677.20
2018-01-31T05:49:44.629Z,682.63
2018-01-31T05:52:12.422Z,682.93
2018-01-31T05:54:40.157Z,681.00
2018-01-31T05:57:07.853Z,682.03
2018-01-31T05:59:35.563Z,673.27
2018-01-31T06:02:04.082Z,675.43
2018-01-31T06:04:31.832Z,676.30
2018-01-31T06:06:59.482Z,678.90
2018-01-31T06:09:27.066Z,662.77
2018-01-31T06:11:54.838Z,663.30
2018-01-31T06:14:22.277Z,668.83
2018-01-31T06:16:49.895Z,673.50
2018-01-31T06:19:18.306Z,679.57
2018-01-31T06:21:46.094Z,677.07
2018-01-31T06:24:13.653Z,683.00
2018-01-31T06:26:41.156Z,683.10
2018-01-31T06:29:09.180Z,692.17
2018-01-31T06:31:36.823Z,692.07
2018-01-31T06:34:04.701Z,676.50
2018-01-31T06:36:32.486Z,681.10
2018-01-31T06:38:59.946Z,680.77
2018-01-31T06:41:27.397Z,681.90
2018-01-31T06:43:55.167Z,684.03
2018-01-31T06:46:22.622Z,702.23
2018-01-31T06:48:50.374Z,685.63
2018-01-31T06:51:18.135Z,685.97
2018-01-31T06:53:46.211Z,684.23
2018-01-31T06:56:13.738Z,685.67
2018-01-31T06:58:41.189Z,682.37
2018-01-31T07:01:09.193Z,674.63
2018-01-31T07:03:36.859Z,689.60
2018-01-31T07:06:04.339Z,683.47
2018-01-31T07:08:32.054Z,676.70
2018-01-31T07:10:59.485Z,678.47
2018-01-31T07:13:27.703Z,686.40
2018-01-31T07:15:55.138Z,678.70
2018-01-31T07:18:22.597Z,687.47
2018-01-31T07:20:50.677Z,679.00
2018-01-31T07:23:18.377Z,679.87
2018-01-31T07:25:46.193Z,683.50
2018-01-31T07:28:13.650Z,681.20
2018-01-31T07:30:41.089Z,679.23
2018-01-31T07:33:09.078Z,688.17
2018-01-31T07:35:36.674Z,685.73
2018-01-31T07:38:04.421Z,688.07
2018-01-31T07:40:31.986Z,687.67
2018-01-31T07:42:59.446Z,689.97
2018-01-31T07:45:27.404Z,695.50
2018-01-31T07:47:55.493Z,688.83
2018-01-31T07:50:23.254Z,679.93
2018-01-31T07:52:51.015Z,692.23
2018-01-31T07:55:18.526Z,686.27
2018-01-31T07:57:45.974Z,730.57
2018-01-31T08:00:13.715Z,736.43
2018-01-31T08:02:41.492Z,722.37
2018-01-31T08:05:09.150Z,713.57
2018-01-31T08:07:37.773Z,723.67
2018-01-31T08:10:05.242Z,726.30
2018-01-31T08:12:32.841Z,699.20
2018-01-31T08:15:00.488Z,727.17
2018-01-31T08:17:28.230Z,679.97
2018-01-31T08:19:56.078Z,708.23
2018-01-31T08:22:23.533Z,707.37
2018-01-31T08:24:50.986Z,674.92
2018-01-31T08:27:18.667Z,667.37
2018-01-31T08:29:46.161Z,671.63
2018-01-31T08:32:13.633Z,666.40
2018-01-31T08:34:41.422Z,669.95
2018-01-31T08:37:08.894Z,672.40
2018-01-31T08:39:36.689Z,665.47
2018-01-31T08:42:04.698Z,670.22
2018-01-31T08:44:32.169Z,674.15
2018-01-31T08:46:59.627Z,691.93
2018-01-31T08:49:27.161Z,673.28
2018-01-31T08:51:54.612Z,671.83
2018-01-31T08:54:22.227Z,669.40
2018-01-31T08:56:49.745Z,665.03
2018-01-31T08:59:17.218Z,669.67
2018-01-31T09:01:44.938Z,666.12
2018-01-31T09:04:12.690Z,662.73
2018-01-31T09:06:40.506Z,671.17
2018-01-31T09:09:08.066Z,668.13
2018-01-31T09:11:35.654Z,668.35
2018-01-31T09:14:03.451Z,673.92
2018-01-31T09:16:30.906Z,663.22
2018-01-31T09:18:58.734Z,661.05
2018-01-31T09:21:26.401Z,670.83
2018-01-31T09:23:53.875Z,600.47
2018-01-31T09:26:21.348Z,659.53
2018-01-31T09:28:48.982Z,662.33
2018-01-31T09:31:16.686Z,675.78
2018-01-31T09:33:44.154Z,681.67
2018-01-31T09:36:12.099Z,674.67
2018-01-31T09:38:39.850Z,672.47
2018-01-31T09:41:07.522Z,676.63
2018-01-31T09:43:34.966Z,668.00
2018-01-31T09:46:02.590Z,669.27
2018-01-31T09:48:30.333Z,673.37
2018-01-31T09:50:58.171Z,670.07
2018-01-31T09:53:25.636Z,662.65
2018-01-31T09:55:53.082Z,684.37
2018-01-31T09:58:20.759Z,663.83
2018-01-31T10:00:48.511Z,453.10
2018-01-31T10:03:16.022Z,617.47
2018-01-31T10:05:43.761Z,649.80
2018-01-31T10:08:12.550Z,639.87
2018-01-31T10:10:40.012Z,644.77
2018-01-31T10:13:09.429Z,658.13
2018-01-31T10:15:37.637Z,698.33
2018-01-31T10:18:05.081Z,603.13
2018-01-31T10:20:32.538Z,687.83
2018-01-31T10:23:00.196Z,735.90
2018-01-31T10:25:27.670Z,632.93
2018-01-31T10:27:55.130Z,671.53
2018-01-31T10:30:22.705Z,663.10
2018-01-31T10:32:50.497Z,658.00
2018-01-31T10:35:18.533Z,646.57
2018-01-31T10:37:45.975Z,729.93
2018-01-31T10:40:13.458Z,606.17
2018-01-31T10:42:41.009Z,690.30
2018-01-31T10:45:08.567Z,675.13
2018-01-31T10:47:36.317Z,733.17
2018-01-31T10:50:03.773Z,695.23
2018-01-31T10:52:32.184Z,754.90
2018-01-31T10:57:29.227Z,744.47
2018-01-31T10:59:54.813Z,775.10
2018-01-31T11:02:22.577Z,653.80
2018-01-31T11:04:50.136Z,771.57
2018-01-31T11:07:17.841Z,756.10
2018-01-31T11:09:45.893Z,366.87
2018-01-31T11:12:13.486Z,399.17
2018-01-31T11:14:41.229Z,332.70
2018-01-31T11:17:08.998Z,436.87
2018-01-31T11:19:36.676Z,491.87
2018-01-31T11:22:04.165Z,499.80
2018-01-31T11:24:31.616Z,482.77
2018-01-31T11:26:59.943Z,367.00
2018-01-31T11:29:27.401Z,369.40
2018-01-31T11:31:56.079Z,355.03
2018-01-31T11:34:23.962Z,483.83
2018-01-31T11:36:52.025Z,512.23
2018-01-31T11:39:19.683Z,518.77
2018-01-31T11:41:47.594Z,726.93
2018-01-31T11:44:15.038Z,736.77
2018-01-31T11:46:43.092Z,753.63
2018-01-31T11:49:11.158Z,775.00
2018-01-31T11:51:38.790Z,631.37
2018-01-31T11:54:06.392Z,563.87
2018-01-31T11:56:34.141Z,539.00
2018-01-31T11:59:01.913Z,509.10
2018-01-31T12:01:29.685Z,514.23
2018-01-31T12:03:57.747Z,507.77
2018-01-31T12:06:25.383Z,525.97
2018-01-31T12:08:52.985Z,508.30
2018-01-31T12:11:20.735Z,512.37
2018-01-31T12:14:10.616Z,499.27
2018-01-31T12:30:17.690Z,457.77
2018-01-31T12:32:57.137Z,415.90
2018-01-31T12:35:36.285Z,302.57
2018-01-31T12:38:15.698Z,346.33
2018-01-31T12:40:42.679Z,336.20
2018-01-31T12:43:09.623Z,520.50
2018-01-31T12:45:36.562Z,401.47
2018-01-31T12:48:06.069Z,440.57
2018-01-31T12:50:46.500Z,464.13
2018-01-31T12:53:25.944Z,393.83
2018-01-31T12:56:05.128Z,331.83
2018-01-31T12:58:44.384Z,409.27
2018-01-31T13:01:23.793Z,289.93
2018-01-31T13:04:04.003Z,309.77
2018-01-31T13:06:43.429Z,307.13
2018-01-31T13:09:21.022Z,283.63
2018-01-31T13:12:00.274Z,370.83
2018-01-31T13:14:51.234Z,210.50
2018-01-31T13:17:24.185Z,362.40
2018-01-31T13:20:03.402Z,253.90
2018-01-31T13:22:49.440Z,421.87
2018-01-31T13:25:28.704Z,364.40
2018-01-31T13:28:13.692Z,279.20
2018-01-31T13:44:22.767Z,215.17
2018-01-31T13:47:02.119Z,30.23
2018-01-31T13:49:41.705Z,14.53
2018-01-31T13:52:28.489Z,19.00
2018-01-31T13:55:07.754Z,19.50
2018-01-31T13:57:47.162Z,40.10
2018-01-31T14:00:26.615Z,38.93
2018-01-31T14:03:05.726Z,47.40
2018-01-31T14:05:45.163Z,46.67
2018-01-31T14:08:24.910Z,44.40
2018-01-31T14:11:03.985Z,86.30
2018-01-31T14:13:43.326Z,89.33
2018-01-31T14:16:23.489Z,99.87
2018-01-31T14:19:02.973Z,84.77
2018-01-31T14:21:42.429Z,76.77
2018-01-31T14:24:34.537Z,79.93
2018-01-31T14:27:13.706Z,79.03
2018-01-31T14:29:52.994Z,85.33
2018-01-31T14:32:32.451Z,67.97
2018-01-31T14:35:11.681Z,72.17
2018-01-31T14:37:38.652Z,57.00
2018-01-31T14:40:05.886Z,65.83
2018-01-31T14:42:33.026Z,57.27
2018-01-31T14:45:00.485Z,62.13
2018-01-31T14:47:27.933Z,45.10
2018-01-31T14:49:54.880Z,52.27
2018-01-31T14:52:21.825Z,53.13
2018-01-31T14:54:49.097Z,48.90
2018-01-31T14:57:16.238Z,48.03
2018-01-31T14:59:43.185Z,46.90
2018-01-31T15:02:10.133Z,45.50
2018-01-31T15:04:37.119Z,36.63
2018-01-31T15:07:04.087Z,41.10
2018-01-31T15:09:31.388Z,37.17
2018-01-31T15:11:59.793Z,33.63
2018-01-31T15:14:26.903Z,35.50
2018-01-31T15:16:53.846Z,32.50
2018-01-31T15:19:20.861Z,21.13
2018-01-31T15:21:47.815Z,12.33
2018-01-31T15:24:14.765Z,19.67
2018-01-31T15:26:41.729Z,11.40
2018-01-31T15:29:09.177Z,21.13
2018-01-31T15:31:36.109Z,8.30
2018-01-31T15:34:03.183Z,33.40
2018-01-31T15:36:30.282Z,11.43
2018-01-31T15:38:57.421Z,5.00
2018-01-31T15:41:24.626Z,4.10
2018-01-31T15:43:51.734Z,5.87
2018-01-31T15:46:18.682Z,12.30
2018-01-31T15:48:45.645Z,19.87
2018-01-31T15:51:12.588Z,4.13
2018-01-31T15:53:40.062Z,5.30
2018-01-31T15:56:07.157Z,4.87
2018-01-31T15:58:34.119Z,3.27
2018-01-31T16:01:01.291Z,4.60
2018-01-31T16:03:28.226Z,4.27
2018-01-31T16:05:55.174Z,2.97
2018-01-31T16:08:22.310Z,4.30
2018-01-31T16:10:49.268Z,4.20
2018-01-31T16:13:16.696Z,4.73
2018-01-31T16:15:44.107Z,4.67
2018-01-31T16:18:23.547Z,3.73
2018-01-31T16:20:51.926Z,3.67
2018-01-31T16:23:19.603Z,5.07
2018-01-31T16:25:47.331Z,3.93
2018-01-31T16:28:26.642Z,7.20
2018-01-31T16:30:54.351Z,7.93
2018-01-31T16:33:36.254Z,5.60
2018-01-31T16:36:03.703Z,6.77
2018-01-31T16:38:31.154Z,4.47
2018-01-31T16:40:58.685Z,4.27
2018-01-31T16:43:26.578Z,6.60
2018-01-31T16:45:54.319Z,7.93
2018-01-31T16:48:21.941Z,4.50
2018-01-31T16:50:49.379Z,5.50
2018-01-31T16:53:16.990Z,4.80
2018-01-31T16:55:44.435Z,4.90
2018-01-31T16:58:12.966Z,5.70
2018-01-31T17:00:40.433Z,3.43
2018-01-31T17:03:07.873Z,2.60
2018-01-31T17:05:35.309Z,4.87
2018-01-31T17:08:04.336Z,2.07
2018-01-31T17:10:32.090Z,1.60
2018-01-31T17:12:59.518Z,1.33
2018-01-31T17:15:27.237Z,2.27
2018-01-31T17:17:54.721Z,4.03
2018-01-31T17:20:22.399Z,7.63
2018-01-31T17:22:50.100Z,1.20
2018-01-31T17:25:17.758Z,2.03
2018-01-31T17:27:45.434Z,3.80
2018-01-31T17:30:12.894Z,2.17
2018-01-31T17:32:40.638Z,1.40
2018-01-31T17:35:08.193Z,1.13
2018-01-31T17:37:35.998Z,12.50
2018-01-31T17:40:03.610Z,1.53
2018-01-31T17:42:31.086Z,1.80
2018-01-31T17:44:58.660Z,2.00
2018-01-31T17:47:26.573Z,1.83
2018-01-31T17:49:55.106Z,1.87
2018-01-31T17:52:22.874Z,2.20
2018-01-31T17:54:50.501Z,1.47
2018-01-31T17:57:18.254Z,1.60
2018-01-31T17:59:46.012Z,3.67
2018-01-31T18:02:13.491Z,2.13
2018-01-31T18:04:40.947Z,5.30
2018-01-31T18:07:08.503Z,3.23
2018-01-31T18:09:35.928Z,2.80
2018-01-31T18:12:03.363Z,2.00
2018-01-31T18:14:30.797Z,2.93
2018-01-31T18:16:58.274Z,2.80
2018-01-31T18:19:25.749Z,1.47
2018-01-31T18:21:53.170Z,2.47
2018-01-31T18:24:20.602Z,2.03
2018-01-31T18:26:48.030Z,1.67
2018-01-31T18:29:16.250Z,3.27
2018-01-31T18:31:43.673Z,2.37
2018-01-31T18:34:11.139Z,1.40
2018-01-31T18:36:38.575Z,2.40
2018-01-31T18:39:06.010Z,2.50
2018-01-31T18:41:33.446Z,2.20
2018-01-31T18:44:00.893Z,5.23
2018-01-31T18:46:28.327Z,4.00
2018-01-31T18:48:55.785Z,4.83
2018-01-31T18:51:23.222Z,4.80
2018-01-31T18:53:50.670Z,4.57
2018-01-31T18:56:18.882Z,4.13
2018-01-31T18:58:46.312Z,3.43
2018-01-31T19:01:13.773Z,6.47
2018-01-31T19:03:41.197Z,6.73
2018-01-31T19:06:08.641Z,11.03
2018-01-31T19:08:36.098Z,9.90
2018-01-31T19:11:03.578Z,7.00
2018-01-31T19:13:31.007Z,6.50
2018-01-31T19:15:58.474Z,10.10
2018-01-31T19:18:25.918Z,12.73
2018-01-31T19:20:53.379Z,7.03
2018-01-31T19:23:21.106Z,4.13
2018-01-31T19:25:48.522Z,6.57
2018-01-31T19:28:15.954Z,8.57
2018-01-31T19:30:43.423Z,9.17
2018-01-31T19:33:10.845Z,5.17
2018-01-31T19:35:38.300Z,7.57
2018-01-31T19:38:05.742Z,14.23
2018-01-31T19:40:33.180Z,8.30
2018-01-31T19:43:00.814Z,3.83
2018-01-31T19:45:28.258Z,3.73
2018-01-31T19:47:55.705Z,10.40
2018-01-31T19:50:23.140Z,17.30
2018-01-31T19:52:50.687Z,24.73
2018-01-31T19:55:18.366Z,17.13
2018-01-31T19:57:45.801Z,28.10
2018-01-31T20:00:13.273Z,25.63
2018-01-31T20:02:40.748Z,27.73
2018-01-31T20:05:08.186Z,23.17
2018-01-31T20:07:35.636Z,29.27
2018-01-31T20:10:03.065Z,31.90
2018-01-31T20:12:31.294Z,21.37
2018-01-31T20:14:58.739Z,36.07
2018-01-31T20:17:26.196Z,20.93
2018-01-31T20:19:53.643Z,13.67
2018-01-31T20:22:21.090Z,17.17
2018-01-31T20:24:48.545Z,19.33
2018-01-31T20:27:15.993Z,22.50
2018-01-31T20:29:44.203Z,25.67
2018-01-31T20:32:11.644Z,12.77
2018-01-31T20:34:39.115Z,10.67
2018-01-31T20:37:06.558Z,12.97
2018-01-31T20:39:34.011Z,10.50
2018-01-31T20:42:01.506Z,17.27
2018-01-31T20:44:29.430Z,18.40
2018-01-31T20:46:57.125Z,17.67
2018-01-31T20:49:24.606Z,22.30
2018-01-31T20:51:52.074Z,37.50
2018-01-31T20:54:19.494Z,52.93
2018-01-31T20:56:46.921Z,53.60
2018-01-31T20:59:14.382Z,59.07
2018-01-31T21:01:41.827Z,60.13
2018-01-31T21:04:10.044Z,60.87
2018-01-31T21:06:37.498Z,35.33
2018-01-31T21:09:04.971Z,43.33
2018-01-31T21:11:32.428Z,53.07
2018-01-31T21:13:59.860Z,46.07
2018-01-31T21:16:27.317Z,64.77
2018-01-31T21:18:54.754Z,31.20
2018-01-31T21:21:22.193Z,54.57
2018-01-31T21:23:49.631Z,47.57
2018-01-31T21:26:17.104Z,50.70
2018-01-31T21:28:45.310Z,17.30
2018-01-31T21:31:12.754Z,22.73
2018-01-31T21:33:40.246Z,16.63
2018-01-31T21:36:07.694Z,23.47
2018-01-31T21:38:35.134Z,131.70
2018-01-31T21:41:02.604Z,66.07
2018-01-31T21:43:30.037Z,41.43
2018-01-31T21:45:57.485Z,29.97
2018-01-31T21:48:24.917Z,26.63
2018-01-31T21:50:52.389Z,55.47
2018-01-31T21:53:19.809Z,30.33
2018-01-31T21:55:47.888Z,21.93
2018-01-31T21:58:15.325Z,25.63
2018-01-31T22:00:42.781Z,70.33
2018-01-31T22:03:10.249Z,62.87
2018-01-31T22:05:37.701Z,45.10
2018-01-31T22:08:05.147Z,50.60
2018-01-31T22:10:32.590Z,63.77
2018-01-31T22:13:00.028Z,50.90
2018-01-31T22:15:27.477Z,37.17
2018-01-31T22:17:54.919Z,72.47
2018-01-31T22:20:22.388Z,51.27
2018-01-31T22:22:49.829Z,42.97
2018-01-31T22:25:17.273Z,21.50
2018-01-31T22:27:45.493Z,30.83
2018-01-31T22:30:13.053Z,19.10
2018-01-31T22:32:40.962Z,21.23
2018-01-31T22:35:08.410Z,21.33
2018-01-31T22:37:36.488Z,15.83
2018-01-31T22:40:03.947Z,20.30
2018-01-31T22:42:31.584Z,17.97
2018-01-31T22:44:59.026Z,26.77
2018-01-31T22:47:26.609Z,19.60
2018-01-31T22:49:54.065Z,19.67
2018-01-31T22:52:21.490Z,9.20
2018-01-31T22:54:49.001Z,12.33
2018-01-31T22:57:16.706Z,8.07
2018-01-31T22:59:45.357Z,26.60
2018-01-31T23:02:12.837Z,27.10
2018-01-31T23:04:40.273Z,8.37
2018-01-31T23:07:07.736Z,8.83
2018-01-31T23:09:35.182Z,15.13
2018-01-31T23:12:08.175Z,17.17
2018-01-31T23:14:41.229Z,26.93
2018-01-31T23:17:08.689Z,24.33
2018-01-31T23:19:36.138Z,28.87
2018-01-31T23:22:03.583Z,26.67
2018-01-31T23:24:31.023Z,39.20
2018-01-31T23:26:58.464Z,29.77
2018-01-31T23:29:25.901Z,49.07
2018-01-31T23:31:53.353Z,22.53
2018-01-31T23:34:20.798Z,19.03
2018-01-31T23:36:48.269Z,13.87
2018-01-31T23:39:15.714Z,7.03
2018-01-31T23:41:43.142Z,4.60
2018-01-31T23:44:10.589Z,8.73
2018-01-31T23:46:38.036Z,7.13
2018-01-31T23:49:06.238Z,8.43
2018-01-31T23:51:33.670Z,9.37
2018-01-31T23:54:01.106Z,6.50
2018-01-31T23:56:28.542Z,9.60
2018-01-31T23:58:55.998Z,8.83
